首页
METAR-TAF:

METAR-TAF

机场 :

雅蒲島國際機場

雅蒲島, 密克罗尼西亚群岛

纬度: 09-29N, 经度: 138-05E, 海拔: 28米

当前天气观测

该预报发布于41分钟前的14:50 UTC
风速7节,风向西南
温度 28°C
湿度 84%
气压 1004 hPa
能見度: 19.3公里
散云层高于1600英尺, 积雨云.
多云层高于13000英尺
阴天层高于30000英尺

METAR: PTYA 161450Z 23007KT 12SM SCT016CB BKN130 OVC300 28/25 A2966 RMK CB ALQDS SLP044 8/371 T02810246 402950268 58002

时间: 01:31 (15:31 UTC)

预报

该预报发布于4小时和3分钟前的11:28 UTC
预报有效从16日的 12点(UTC)到 17日的 12点(UTC)
风速11节,风向西转西南
能見度: 10公里
散云层高于1600英尺
多云层高于4000英尺
多云层高于10000英尺
附近有阵雨

TAF: PTYA 161128Z 1612/1712 25011KT P6SM VCSH SCT016 BKN040 BKN100

超过4000个机场的气象观测和天气预报(METAR&TAF报告)。

可查询的气象台以黄色和红色小点在地图上表示。

将鼠标移到小点上方,可查看气象台名称。

然后点击查看天气观测和预报。

如需切换地图:点击带黑十字的绿色按钮放大地图;点击带横线的绿色按钮缩小地图;或者点击绿色箭头查看邻近地区的地图。


METAR-TAF: